createdAt,value
2019-03-24T00:01:51.674Z,23.00
2019-03-24T00:04:12.233Z,24.72
2019-03-24T00:06:32.774Z,22.15
2019-03-24T00:08:53.837Z,23.20
2019-03-24T00:11:14.472Z,21.25
2019-03-24T00:13:35.054Z,22.40
2019-03-24T00:15:55.677Z,21.40
2019-03-24T00:18:16.429Z,24.72
2019-03-24T00:20:37.081Z,22.80
2019-03-24T00:22:57.708Z,19.23
2019-03-24T00:25:18.310Z,21.50
2019-03-24T00:27:38.929Z,24.25
2019-03-24T00:29:59.631Z,19.23
2019-03-24T00:32:20.312Z,19.67
2019-03-24T00:34:40.858Z,22.17
2019-03-24T00:37:01.459Z,23.98
2019-03-24T00:39:22.223Z,20.80
2019-03-24T00:41:42.851Z,21.48
2019-03-24T00:44:04.986Z,22.75
2019-03-24T00:46:25.811Z,20.77
2019-03-24T00:48:46.454Z,25.77
2019-03-24T00:51:07.034Z,22.87
2019-03-24T00:53:27.594Z,20.70
2019-03-24T00:55:48.396Z,19.85
2019-03-24T00:58:09.007Z,22.52
2019-03-24T01:00:46.869Z,22.80
2019-03-24T01:03:07.418Z,24.87
2019-03-24T01:05:28.094Z,19.50
2019-03-24T01:07:48.704Z,24.40
2019-03-24T01:10:09.951Z,23.45
2019-03-24T01:12:30.717Z,21.02
2019-03-24T01:14:51.273Z,20.55
2019-03-24T01:17:13.015Z,25.75
2019-03-24T01:19:33.637Z,27.37
2019-03-24T01:21:54.228Z,22.35
2019-03-24T01:24:14.853Z,22.98
2019-03-24T01:26:35.500Z,22.65
2019-03-24T01:28:56.041Z,21.75
2019-03-24T01:31:16.585Z,22.80
2019-03-24T01:33:37.158Z,22.17
2019-03-24T01:35:57.757Z,23.22
2019-03-24T01:38:18.526Z,23.95
2019-03-24T01:40:39.083Z,20.90
2019-03-24T01:42:59.785Z,21.93
2019-03-24T01:45:20.324Z,21.45
2019-03-24T01:47:40.855Z,23.42
2019-03-24T01:50:01.462Z,23.55
2019-03-24T01:52:22.041Z,20.00
2019-03-24T01:54:42.626Z,21.62
2019-03-24T01:57:03.249Z,26.97
2019-03-24T01:59:23.868Z,29.95
2019-03-24T02:01:45.981Z,21.87
2019-03-24T02:04:06.589Z,24.30
2019-03-24T02:06:27.216Z,22.73
2019-03-24T02:08:47.779Z,22.85
2019-03-24T02:11:08.302Z,24.82
2019-03-24T02:13:29.127Z,21.73
2019-03-24T02:15:51.393Z,21.85
2019-03-24T02:18:12.044Z,24.77
2019-03-24T02:20:32.720Z,24.47
2019-03-24T02:22:53.244Z,23.47
2019-03-24T02:25:13.975Z,24.07
2019-03-24T02:27:53.965Z,20.55
2019-03-24T02:30:14.950Z,18.87
2019-03-24T02:32:35.591Z,21.65
2019-03-24T02:34:56.213Z,21.02
2019-03-24T02:37:16.770Z,20.27
2019-03-24T02:39:37.464Z,23.55
2019-03-24T02:41:58.004Z,22.90
2019-03-24T02:44:18.653Z,23.52
2019-03-24T02:46:39.182Z,18.17
2019-03-24T02:48:59.871Z,20.62
2019-03-24T02:51:20.510Z,18.27
2019-03-24T02:53:41.063Z,28.30
2019-03-24T02:56:01.702Z,21.82
2019-03-24T02:58:22.308Z,21.15
2019-03-24T03:00:42.925Z,24.82
2019-03-24T03:03:04.590Z,22.42
2019-03-24T03:05:25.254Z,23.35
2019-03-24T03:07:46.371Z,19.82
2019-03-24T03:10:07.715Z,24.92
2019-03-24T03:12:28.335Z,24.70
2019-03-24T03:14:49.003Z,27.98
2019-03-24T03:17:09.651Z,22.73
2019-03-24T03:19:30.829Z,24.55
2019-03-24T03:21:51.406Z,28.35
2019-03-24T03:24:12.080Z,22.50
2019-03-24T03:26:32.719Z,21.57
2019-03-24T03:28:53.244Z,23.07
2019-03-24T03:31:13.862Z,27.13
2019-03-24T03:33:34.434Z,24.95
2019-03-24T03:35:55.051Z,31.75
2019-03-24T03:38:15.665Z,22.58
2019-03-24T03:40:36.287Z,23.32
2019-03-24T03:42:56.845Z,25.37
2019-03-24T03:45:20.514Z,25.62
2019-03-24T03:47:41.099Z,21.30
2019-03-24T03:50:01.660Z,23.55
2019-03-24T03:52:22.222Z,23.47
2019-03-24T03:54:42.820Z,26.62
2019-03-24T03:57:03.421Z,25.27
2019-03-24T03:59:23.982Z,21.25
2019-03-24T04:01:44.676Z,24.35
2019-03-24T04:04:05.778Z,27.65
2019-03-24T04:06:26.463Z,24.45
2019-03-24T04:08:47.087Z,26.37
2019-03-24T04:11:07.732Z,26.35
2019-03-24T04:13:28.277Z,24.02
2019-03-24T04:15:48.989Z,25.80
2019-03-24T04:18:09.612Z,25.12
2019-03-24T04:20:30.263Z,25.08
2019-03-24T04:22:50.856Z,26.05
2019-03-24T04:25:11.554Z,23.10
2019-03-24T04:27:32.119Z,27.77
2019-03-24T04:29:52.681Z,29.70
2019-03-24T04:32:13.278Z,24.32
2019-03-24T04:34:33.930Z,32.70
2019-03-24T04:36:54.483Z,25.70
2019-03-24T04:39:15.031Z,24.55
2019-03-24T04:41:35.619Z,26.10
2019-03-24T04:43:56.202Z,25.30
2019-03-24T04:46:16.891Z,27.25
2019-03-24T04:48:37.542Z,25.12
2019-03-24T04:50:58.178Z,25.92
2019-03-24T04:53:20.712Z,23.83
2019-03-24T04:55:40.433Z,19.60
2019-03-24T04:58:01.072Z,27.75
2019-03-24T05:00:27.404Z,25.08
2019-03-24T05:02:47.945Z,30.20
2019-03-24T05:05:09.460Z,28.92
2019-03-24T05:07:31.025Z,27.82
2019-03-24T05:09:54.487Z,27.32
2019-03-24T05:12:14.852Z,21.35
2019-03-24T05:14:35.580Z,26.17
2019-03-24T05:16:56.103Z,27.13
2019-03-24T05:19:16.666Z,25.95
2019-03-24T05:21:37.230Z,27.35
2019-03-24T05:23:58.942Z,24.37
2019-03-24T05:26:19.570Z,29.75
2019-03-24T05:28:40.188Z,25.15
2019-03-24T05:31:00.931Z,27.50
2019-03-24T05:33:21.534Z,25.37
2019-03-24T05:35:43.118Z,28.50
2019-03-24T05:38:03.742Z,29.35
2019-03-24T05:40:24.269Z,26.57
2019-03-24T05:42:44.882Z,24.60
2019-03-24T05:45:08.550Z,24.47
2019-03-24T05:47:36.779Z,24.85
2019-03-24T05:49:52.825Z,25.30
2019-03-24T05:52:13.603Z,34.73
2019-03-24T05:54:34.174Z,23.35
2019-03-24T05:56:54.759Z,22.22
2019-03-24T05:59:15.363Z,22.52
2019-03-24T06:01:35.857Z,24.23
2019-03-24T06:03:56.426Z,23.38
2019-03-24T06:06:16.981Z,27.10
2019-03-24T06:08:37.516Z,25.45
2019-03-24T06:11:00.248Z,27.50
2019-03-24T06:13:19.874Z,17.23
2019-03-24T06:15:40.436Z,23.50
2019-03-24T06:18:01.004Z,26.95
2019-03-24T06:20:21.540Z,21.48
2019-03-24T06:22:42.161Z,22.85
2019-03-24T06:25:02.734Z,24.43
2019-03-24T06:27:23.295Z,27.35
2019-03-24T06:29:43.876Z,21.00
2019-03-24T06:32:04.550Z,18.25
2019-03-24T06:34:25.149Z,17.42
2019-03-24T06:36:45.675Z,24.02
2019-03-24T06:39:07.978Z,22.98
2019-03-24T06:41:28.557Z,18.48
2019-03-24T06:43:49.117Z,20.92
2019-03-24T06:46:09.351Z,20.52
2019-03-24T06:48:29.918Z,18.10
2019-03-24T06:50:49.956Z,18.37
2019-03-24T06:53:11.543Z,19.48
2019-03-24T06:55:31.844Z,18.63
2019-03-24T06:57:52.255Z,15.80
2019-03-24T07:00:13.687Z,16.83
2019-03-24T07:02:34.133Z,19.73
2019-03-24T07:04:54.406Z,18.00
2019-03-24T07:07:14.679Z,13.87
2019-03-24T07:09:35.058Z,12.43
2019-03-24T07:11:55.302Z,15.63
2019-03-24T07:14:15.579Z,9.80
2019-03-24T07:16:35.853Z,8.57
2019-03-24T07:18:56.093Z,10.93
2019-03-24T07:21:16.436Z,8.43
2019-03-24T07:23:36.840Z,10.87
2019-03-24T07:25:57.175Z,11.53
2019-03-24T07:28:17.655Z,7.87
2019-03-24T07:30:37.914Z,11.63
2019-03-24T07:32:58.247Z,10.50
2019-03-24T07:35:18.616Z,10.90
2019-03-24T07:37:39.031Z,10.97
2019-03-24T07:39:59.338Z,8.13
2019-03-24T07:42:19.664Z,9.40
2019-03-24T07:44:39.957Z,10.30
2019-03-24T07:47:00.329Z,8.43
2019-03-24T07:49:20.600Z,9.67
2019-03-24T07:51:40.835Z,8.60
2019-03-24T07:54:02.331Z,7.07
2019-03-24T07:56:22.844Z,10.33
2019-03-24T07:58:43.221Z,10.60
2019-03-24T08:01:03.474Z,10.40
2019-03-24T08:03:23.852Z,8.43
2019-03-24T08:05:44.175Z,9.17
2019-03-24T08:08:04.648Z,11.03
2019-03-24T08:10:25.041Z,9.97
2019-03-24T08:12:46.444Z,13.17
2019-03-24T08:15:06.847Z,7.97
2019-03-24T08:17:27.236Z,10.50
2019-03-24T08:19:47.987Z,9.60
2019-03-24T08:22:08.281Z,9.33
2019-03-24T08:24:28.719Z,11.33
2019-03-24T08:26:49.074Z,12.10
2019-03-24T08:29:09.388Z,12.93
2019-03-24T08:31:29.690Z,9.93
2019-03-24T08:33:49.976Z,8.97
2019-03-24T08:36:10.298Z,15.47
2019-03-24T08:38:30.552Z,8.83
2019-03-24T08:40:50.835Z,9.77
2019-03-24T08:43:11.177Z,10.33
2019-03-24T08:45:31.782Z,10.10
2019-03-24T08:47:51.970Z,14.10
2019-03-24T08:50:12.489Z,19.17
2019-03-24T08:52:32.799Z,15.33
2019-03-24T08:54:53.090Z,12.93
2019-03-24T08:57:13.426Z,15.87
2019-03-24T08:59:33.961Z,13.40
2019-03-24T09:01:54.629Z,11.80
2019-03-24T09:04:14.943Z,15.80
2019-03-24T09:06:35.360Z,15.90
2019-03-24T09:08:55.642Z,14.90
2019-03-24T09:11:16.046Z,12.47
2019-03-24T09:13:36.366Z,14.47
2019-03-24T09:15:56.763Z,15.30
2019-03-24T09:18:17.272Z,12.57
2019-03-24T09:20:41.943Z,14.00
2019-03-24T09:22:59.635Z,13.73
2019-03-24T09:25:20.050Z,18.13
2019-03-24T09:27:40.336Z,19.40
2019-03-24T09:30:00.739Z,13.93
2019-03-24T09:32:21.085Z,20.23
2019-03-24T09:34:41.467Z,21.40
2019-03-24T09:37:01.798Z,17.90
2019-03-24T09:39:22.166Z,17.43
2019-03-24T09:41:42.419Z,16.43
2019-03-24T09:44:02.710Z,15.97
2019-03-24T09:46:23.363Z,16.73
2019-03-24T09:48:43.667Z,14.03
2019-03-24T09:51:04.089Z,16.60
2019-03-24T09:53:24.391Z,17.50
2019-03-24T09:55:44.698Z,16.30
2019-03-24T09:58:05.121Z,15.37
2019-03-24T10:00:25.521Z,18.23
2019-03-24T10:02:45.810Z,15.40
2019-03-24T10:05:06.442Z,17.97
2019-03-24T10:07:26.737Z,15.50
2019-03-24T10:09:47.022Z,18.17
2019-03-24T10:12:07.367Z,15.70
2019-03-24T10:14:27.713Z,18.03
2019-03-24T10:16:47.994Z,15.50
2019-03-24T10:19:14.015Z,15.33
2019-03-24T10:21:30.226Z,17.07
2019-03-24T10:23:50.536Z,14.67
2019-03-24T10:26:10.764Z,18.00
2019-03-24T10:28:30.950Z,14.47
2019-03-24T10:30:50.948Z,15.55
2019-03-24T10:33:10.939Z,16.60
2019-03-24T10:35:30.931Z,14.75
2019-03-24T10:37:51.003Z,15.63
2019-03-24T10:40:11.331Z,17.60
2019-03-24T10:42:31.333Z,17.75
2019-03-24T10:44:51.629Z,18.73
2019-03-24T10:47:11.905Z,19.47
2019-03-24T10:49:32.170Z,19.40
2019-03-24T10:51:52.426Z,16.03
2019-03-24T10:54:12.849Z,16.27
2019-03-24T10:56:33.442Z,14.80
2019-03-24T10:58:53.692Z,18.77
2019-03-24T11:01:14.056Z,19.30
2019-03-24T11:03:35.380Z,18.77
2019-03-24T11:05:55.711Z,19.47
2019-03-24T11:08:16.075Z,18.20
2019-03-24T11:10:36.745Z,15.97
2019-03-24T11:12:57.262Z,15.90
2019-03-24T11:15:17.571Z,14.63
2019-03-24T11:17:38.201Z,17.83
2019-03-24T11:20:01.319Z,17.17
2019-03-24T11:22:21.717Z,16.80
2019-03-24T11:24:42.007Z,15.80
2019-03-24T11:27:02.322Z,15.40
2019-03-24T11:29:22.412Z,16.00
2019-03-24T11:31:42.780Z,15.47
2019-03-24T11:34:03.066Z,15.60
2019-03-24T11:36:23.402Z,16.33
2019-03-24T11:38:44.128Z,13.77
2019-03-24T11:41:04.594Z,17.90
2019-03-24T11:43:26.124Z,16.13
2019-03-24T11:45:46.377Z,20.23
2019-03-24T11:48:06.766Z,13.07
2019-03-24T11:50:27.192Z,17.50
2019-03-24T11:52:47.471Z,17.37
2019-03-24T11:55:09.317Z,14.80
2019-03-24T11:57:29.741Z,15.20
2019-03-24T11:59:50.079Z,11.57
2019-03-24T12:02:10.434Z,11.70
2019-03-24T12:04:30.792Z,11.60
2019-03-24T12:06:51.023Z,15.10
2019-03-24T12:09:11.368Z,15.90
2019-03-24T12:11:31.646Z,14.73
2019-03-24T12:13:52.031Z,16.37
2019-03-24T12:16:12.367Z,11.47
2019-03-24T12:18:32.732Z,18.90
2019-03-24T12:20:53.095Z,12.37
2019-03-24T12:23:13.374Z,11.70
2019-03-24T12:25:33.879Z,13.17
2019-03-24T12:27:55.395Z,13.07
2019-03-24T12:30:16.332Z,14.77
2019-03-24T12:32:36.825Z,13.47
2019-03-24T12:34:57.175Z,11.87
2019-03-24T12:37:17.474Z,12.80
2019-03-24T12:39:37.881Z,16.40
2019-03-24T12:41:58.199Z,13.70
2019-03-24T12:44:18.546Z,12.60
2019-03-24T12:46:39.134Z,11.97
2019-03-24T12:48:59.402Z,10.63
2019-03-24T12:51:19.708Z,9.77
2019-03-24T12:53:40.038Z,9.63
2019-03-24T12:56:01.516Z,12.40
2019-03-24T12:58:21.878Z,10.57
2019-03-24T13:00:42.367Z,12.03
2019-03-24T13:03:02.871Z,8.27
2019-03-24T13:05:23.236Z,10.70
2019-03-24T13:07:43.478Z,9.47
2019-03-24T13:10:07.507Z,10.17
2019-03-24T13:12:27.727Z,10.27
2019-03-24T13:14:49.430Z,9.40
2019-03-24T13:17:10.106Z,10.03
2019-03-24T13:19:30.428Z,10.80
2019-03-24T13:21:50.710Z,10.57
2019-03-24T13:24:11.025Z,10.67
2019-03-24T13:26:31.314Z,11.07
2019-03-24T13:28:51.648Z,7.97
2019-03-24T13:31:12.005Z,9.50
2019-03-24T13:33:32.436Z,8.27
2019-03-24T13:35:54.431Z,8.10
2019-03-24T13:38:14.853Z,9.78
2019-03-24T13:40:41.031Z,8.10
2019-03-24T13:43:01.210Z,7.83
2019-03-24T13:45:21.255Z,9.23
2019-03-24T13:47:41.241Z,7.35
2019-03-24T13:50:01.196Z,8.78
2019-03-24T13:52:21.883Z,7.62
2019-03-24T13:54:41.856Z,11.38
2019-03-24T13:57:02.159Z,7.80
2019-03-24T13:59:22.490Z,8.30
2019-03-24T14:01:42.900Z,9.47
2019-03-24T14:04:03.465Z,8.63
2019-03-24T14:06:23.898Z,7.43
2019-03-24T14:08:44.131Z,7.47
2019-03-24T14:11:04.515Z,8.30
2019-03-24T14:13:24.808Z,9.07
2019-03-24T14:15:45.365Z,7.87
2019-03-24T14:18:06.031Z,6.07
2019-03-24T14:20:26.338Z,6.43
2019-03-24T14:22:46.664Z,7.90
2019-03-24T14:25:07.710Z,5.97
2019-03-24T14:27:27.701Z,6.40
2019-03-24T14:29:55.350Z,7.87
2019-03-24T14:32:18.315Z,8.25
2019-03-24T14:34:38.389Z,7.75
2019-03-24T14:36:58.371Z,5.58
2019-03-24T14:39:18.457Z,6.12
2019-03-24T14:41:38.536Z,8.40
2019-03-24T14:43:58.500Z,5.90
2019-03-24T14:46:18.546Z,7.05
2019-03-24T14:48:38.678Z,6.92
2019-03-24T14:50:58.815Z,5.95
2019-03-24T14:53:19.749Z,8.50
2019-03-24T14:55:39.832Z,8.50
2019-03-24T14:57:59.939Z,9.30
2019-03-24T15:00:28.731Z,7.47
2019-03-24T15:02:48.718Z,14.60
2019-03-24T15:05:09.461Z,9.23
2019-03-24T15:07:29.585Z,8.55
2019-03-24T15:09:49.794Z,9.88
2019-03-24T15:12:09.952Z,8.40
2019-03-24T15:14:31.385Z,7.77
2019-03-24T15:16:51.697Z,8.13
2019-03-24T15:19:12.031Z,8.77
2019-03-24T15:21:32.396Z,8.13
2019-03-24T15:23:52.583Z,8.97
2019-03-24T15:26:12.919Z,8.13
2019-03-24T15:28:33.156Z,6.13
2019-03-24T15:30:53.591Z,5.13
2019-03-24T15:33:13.943Z,7.20
2019-03-24T15:35:34.377Z,7.03
2019-03-24T15:38:06.616Z,6.67
2019-03-24T15:40:16.665Z,5.80
2019-03-24T15:42:37.023Z,9.33
2019-03-24T15:44:58.390Z,6.80
2019-03-24T15:47:18.868Z,8.93
2019-03-24T15:49:39.302Z,8.27
2019-03-24T15:51:59.495Z,8.87
2019-03-24T15:54:19.808Z,7.00
2019-03-24T15:56:40.056Z,6.17
2019-03-24T15:59:00.273Z,9.70
2019-03-24T16:01:20.636Z,7.40
2019-03-24T16:03:40.926Z,7.13
2019-03-24T16:06:01.240Z,6.37
2019-03-24T16:08:22.800Z,7.77
2019-03-24T16:10:43.090Z,6.10
2019-03-24T16:13:03.189Z,8.43
2019-03-24T16:15:23.363Z,8.15
2019-03-24T16:17:43.544Z,7.33
2019-03-24T16:20:06.441Z,6.30
2019-03-24T16:24:45.727Z,12.82
2019-03-24T16:27:05.778Z,8.80
2019-03-24T16:29:25.974Z,7.83
2019-03-24T16:31:46.376Z,7.33
2019-03-24T16:34:07.077Z,8.57
2019-03-24T16:36:27.428Z,6.57
2019-03-24T16:38:49.168Z,5.60
2019-03-24T16:41:09.790Z,11.23
2019-03-24T16:43:29.973Z,6.27
2019-03-24T16:45:50.258Z,7.17
2019-03-24T16:48:10.441Z,10.50
2019-03-24T16:50:30.625Z,11.23
2019-03-24T16:52:50.936Z,11.67
2019-03-24T16:55:12.191Z,10.73
2019-03-24T16:57:32.548Z,8.53
2019-03-24T16:59:58.734Z,8.07
2019-03-24T17:02:20.668Z,12.60
2019-03-24T17:04:40.881Z,7.20
2019-03-24T17:07:02.089Z,10.97
2019-03-24T17:09:26.439Z,11.73
2019-03-24T17:11:46.684Z,12.83
2019-03-24T17:14:06.854Z,15.67
2019-03-24T17:16:27.596Z,15.27
2019-03-24T17:18:47.825Z,10.10
2019-03-24T17:21:08.131Z,12.93
2019-03-24T17:23:28.402Z,9.60
2019-03-24T17:25:48.627Z,13.17
2019-03-24T17:28:09.175Z,13.37
2019-03-24T17:30:29.535Z,12.83
2019-03-24T17:32:50.054Z,13.17
2019-03-24T17:35:10.695Z,15.10
2019-03-24T17:37:31.041Z,7.87
2019-03-24T17:39:51.269Z,10.77
2019-03-24T17:42:11.532Z,12.23
2019-03-24T17:44:31.741Z,15.70
2019-03-24T17:46:52.090Z,16.17
2019-03-24T17:49:12.400Z,14.30
2019-03-24T17:51:32.800Z,12.90
2019-03-24T17:53:53.119Z,15.87
2019-03-24T17:56:13.736Z,15.57
2019-03-24T17:58:34.383Z,16.20
2019-03-24T18:00:56.453Z,13.53
2019-03-24T18:03:16.793Z,12.40
2019-03-24T18:05:37.167Z,12.47
2019-03-24T18:07:57.442Z,12.60
2019-03-24T18:10:17.607Z,11.60
2019-03-24T18:12:37.871Z,18.70
2019-03-24T18:14:58.193Z,13.10
2019-03-24T18:17:18.538Z,26.13
2019-03-24T18:19:38.865Z,13.10
2019-03-24T18:21:59.072Z,18.83
2019-03-24T18:24:19.525Z,15.38
2019-03-24T18:26:39.448Z,12.63
2019-03-24T18:28:59.502Z,16.62
2019-03-24T18:31:20.145Z,16.45
2019-03-24T18:33:40.795Z,13.50
2019-03-24T18:36:00.881Z,11.38
2019-03-24T18:38:21.944Z,21.65
2019-03-24T18:40:42.491Z,14.05
2019-03-24T18:43:04.258Z,16.65
2019-03-24T18:45:26.063Z,14.15
2019-03-24T18:47:48.090Z,15.20
2019-03-24T18:50:11.531Z,15.03
2019-03-24T18:52:34.313Z,16.77
2019-03-24T18:55:00.118Z,20.90
2019-03-24T18:57:22.518Z,23.10
2019-03-24T18:59:45.060Z,23.12
2019-03-24T19:02:08.392Z,16.50
2019-03-24T19:04:31.015Z,18.12
2019-03-24T19:06:53.862Z,14.95
2019-03-24T19:09:16.779Z,23.20
2019-03-24T19:11:39.523Z,16.00
2019-03-24T19:14:01.531Z,12.43
2019-03-24T19:16:23.977Z,18.48
2019-03-24T19:18:45.944Z,19.67
2019-03-24T19:21:07.729Z,15.47
2019-03-24T19:23:29.984Z,16.73
2019-03-24T19:25:51.496Z,24.12
2019-03-24T19:28:14.608Z,16.65
2019-03-24T19:30:38.635Z,20.15
2019-03-24T19:33:00.272Z,17.40
2019-03-24T19:35:21.638Z,12.90
2019-03-24T19:37:45.330Z,16.23
2019-03-24T19:40:10.440Z,14.40
2019-03-24T19:42:33.825Z,18.82
2019-03-24T19:44:56.542Z,17.77
2019-03-24T19:47:17.113Z,21.30
2019-03-24T19:49:37.677Z,15.10
2019-03-24T19:51:58.147Z,19.30
2019-03-24T19:54:18.815Z,19.65
2019-03-24T19:56:39.441Z,13.98
2019-03-24T19:58:59.445Z,13.60
2019-03-24T20:01:20.490Z,17.07
2019-03-24T20:03:40.376Z,19.20
2019-03-24T20:06:01.226Z,20.88
2019-03-24T20:08:21.882Z,20.05
2019-03-24T20:10:41.994Z,16.15
2019-03-24T20:13:01.983Z,20.10
2019-03-24T20:15:22.023Z,16.20
2019-03-24T20:17:42.123Z,22.70
2019-03-24T20:20:02.175Z,13.60
2019-03-24T20:22:29.444Z,16.85
2019-03-24T20:24:50.061Z,19.15
2019-03-24T20:27:10.604Z,20.20
2019-03-24T20:29:31.154Z,15.75
2019-03-24T20:31:51.136Z,22.50
2019-03-24T20:34:11.309Z,17.12
2019-03-24T20:36:31.923Z,22.67
2019-03-24T20:38:51.840Z,20.50
2019-03-24T20:41:31.633Z,16.40
2019-03-24T20:43:52.216Z,21.10
2019-03-24T20:46:12.841Z,20.23
2019-03-24T20:48:33.643Z,20.37
2019-03-24T20:50:53.676Z,18.30
2019-03-24T20:53:18.358Z,17.82
2019-03-24T20:55:35.895Z,19.42
2019-03-24T20:57:55.805Z,19.32
2019-03-24T21:00:19.605Z,26.57
2019-03-24T21:02:40.281Z,51.05
2019-03-24T21:05:00.913Z,29.75
2019-03-24T21:07:21.627Z,18.85
2019-03-24T21:09:42.222Z,19.85
2019-03-24T21:12:02.813Z,20.40
2019-03-24T21:14:22.776Z,18.60
2019-03-24T21:16:44.429Z,31.55
2019-03-24T21:19:06.221Z,24.60
2019-03-24T21:21:26.766Z,20.80
2019-03-24T21:23:51.010Z,16.97
2019-03-24T21:26:11.270Z,18.73
2019-03-24T21:28:37.083Z,16.82
2019-03-24T21:30:57.260Z,20.05
2019-03-24T21:33:19.346Z,20.85
2019-03-24T21:35:40.016Z,18.80
2019-03-24T21:38:00.555Z,19.20
2019-03-24T21:40:21.198Z,20.75
2019-03-24T21:42:41.725Z,18.85
2019-03-24T21:45:02.280Z,19.65
2019-03-24T21:47:22.406Z,21.90
2019-03-24T21:49:42.969Z,19.87
2019-03-24T21:52:03.569Z,19.65
2019-03-24T21:54:24.227Z,17.95
2019-03-24T21:56:44.793Z,16.90
2019-03-24T21:59:05.410Z,21.40
2019-03-24T22:01:25.899Z,17.67
2019-03-24T22:03:46.441Z,18.65
2019-03-24T22:06:07.054Z,20.65
2019-03-24T22:08:27.557Z,24.80
2019-03-24T22:10:48.158Z,20.20
2019-03-24T22:13:08.696Z,22.85
2019-03-24T22:15:29.255Z,20.82
2019-03-24T22:17:49.873Z,20.15
2019-03-24T22:20:09.981Z,17.73
2019-03-24T22:22:30.576Z,19.52
2019-03-24T22:24:51.156Z,20.95
2019-03-24T22:27:11.715Z,20.40
2019-03-24T22:29:32.296Z,19.17
2019-03-24T22:31:52.853Z,17.25
2019-03-24T22:34:15.101Z,25.37
2019-03-24T22:36:35.698Z,19.65
2019-03-24T22:38:56.589Z,21.02
2019-03-24T22:41:17.120Z,23.90
2019-03-24T22:43:37.019Z,23.38
2019-03-24T22:45:57.609Z,21.07
2019-03-24T22:48:27.399Z,20.50
2019-03-24T22:50:47.985Z,19.45
2019-03-24T22:53:08.603Z,21.20
2019-03-24T22:55:29.262Z,20.70
2019-03-24T22:57:49.897Z,20.48
2019-03-24T23:00:14.351Z,16.62
2019-03-24T23:02:36.633Z,23.10
2019-03-24T23:04:57.193Z,20.00
2019-03-24T23:07:17.652Z,19.17
2019-03-24T23:09:38.157Z,16.80
2019-03-24T23:11:58.925Z,20.92
2019-03-24T23:14:19.910Z,18.90
2019-03-24T23:16:40.574Z,21.93
2019-03-24T23:19:01.153Z,20.68
2019-03-24T23:21:21.725Z,18.55
2019-03-24T23:23:42.272Z,24.30
2019-03-24T23:26:03.013Z,19.73
2019-03-24T23:28:42.916Z,19.32
2019-03-24T23:31:03.541Z,24.25
2019-03-24T23:33:24.113Z,19.87
2019-03-24T23:35:44.069Z,26.15
2019-03-24T23:38:04.608Z,22.50
2019-03-24T23:40:25.140Z,30.10
2019-03-24T23:42:45.817Z,24.30
2019-03-24T23:45:10.317Z,20.97
2019-03-24T23:47:30.852Z,21.97
2019-03-24T23:49:51.481Z,25.25
2019-03-24T23:52:12.036Z,23.77
2019-03-24T23:54:32.788Z,29.65
2019-03-24T23:56:53.439Z,27.93
2019-03-24T23:59:14.123Z,25.43
